sensor_id;sensor_type;location;lat;lon;timestamp;P1;durP1;ratioP1;P2;durP2;ratioP2
20154;SDS011;10238;49.556;10.956;2022-10-16T00:00:13;2.63;;;2.35;;
20154;SDS011;10238;49.556;10.956;2022-10-16T00:03:01;3.08;;;2.78;;
20154;SDS011;10238;49.556;10.956;2022-10-16T00:05:49;4.10;;;2.85;;
20154;SDS011;10238;49.556;10.956;2022-10-16T00:08:38;3.05;;;2.55;;
20154;SDS011;10238;49.556;10.956;2022-10-16T00:11:27;2.58;;;2.38;;
20154;SDS011;10238;49.556;10.956;2022-10-16T00:14:18;4.87;;;2.60;;
20154;SDS011;10238;49.556;10.956;2022-10-16T00:17:08;4.07;;;2.53;;
20154;SDS011;10238;49.556;10.956;2022-10-16T00:19:59;3.60;;;2.80;;
20154;SDS011;10238;49.556;10.956;2022-10-16T00:22:46;5.85;;;2.65;;
20154;SDS011;10238;49.556;10.956;2022-10-16T00:25:35;2.67;;;2.30;;
20154;SDS011;10238;49.556;10.956;2022-10-16T00:28:23;3.75;;;2.20;;
20154;SDS011;10238;49.556;10.956;2022-10-16T00:31:12;4.20;;;2.50;;
20154;SDS011;10238;49.556;10.956;2022-10-16T00:34:00;2.70;;;2.50;;
20154;SDS011;10238;49.556;10.956;2022-10-16T00:36:47;2.65;;;2.30;;
20154;SDS011;10238;49.556;10.956;2022-10-16T00:39:35;2.65;;;2.40;;
20154;SDS011;10238;49.556;10.956;2022-10-16T00:42:25;3.40;;;2.10;;
20154;SDS011;10238;49.556;10.956;2022-10-16T00:45:15;2.42;;;2.10;;
20154;SDS011;10238;49.556;10.956;2022-10-16T00:48:03;2.90;;;2.58;;
20154;SDS011;10238;49.556;10.956;2022-10-16T00:50:51;4.07;;;2.38;;
20154;SDS011;10238;49.556;10.956;2022-10-16T00:53:42;3.88;;;1.92;;
20154;SDS011;10238;49.556;10.956;2022-10-16T00:56:31;2.88;;;2.47;;
20154;SDS011;10238;49.556;10.956;2022-10-16T00:59:22;6.90;;;2.53;;
20154;SDS011;10238;49.556;10.956;2022-10-16T01:02:15;5.35;;;2.80;;
20154;SDS011;10238;49.556;10.956;2022-10-16T01:05:04;3.78;;;2.30;;
20154;SDS011;10238;49.556;10.956;2022-10-16T01:07:56;2.85;;;2.30;;
20154;SDS011;10238;49.556;10.956;2022-10-16T01:10:57;5.18;;;2.20;;
20154;SDS011;10238;49.556;10.956;2022-10-16T01:13:58;2.65;;;2.35;;
20154;SDS011;10238;49.556;10.956;2022-10-16T01:17:00;4.65;;;2.55;;
20154;SDS011;10238;49.556;10.956;2022-10-16T01:19:59;5.60;;;3.22;;
20154;SDS011;10238;49.556;10.956;2022-10-16T01:26:16;3.13;;;2.60;;
20154;SDS011;10238;49.556;10.956;2022-10-16T01:29:26;5.05;;;3.28;;
20154;SDS011;10238;49.556;10.956;2022-10-16T01:32:22;6.30;;;3.00;;
20154;SDS011;10238;49.556;10.956;2022-10-16T01:35:19;4.18;;;3.00;;
20154;SDS011;10238;49.556;10.956;2022-10-16T01:38:17;3.40;;;3.10;;
20154;SDS011;10238;49.556;10.956;2022-10-16T01:41:15;6.03;;;3.05;;
20154;SDS011;10238;49.556;10.956;2022-10-16T01:44:14;4.28;;;3.05;;
20154;SDS011;10238;49.556;10.956;2022-10-16T01:47:12;3.75;;;2.60;;
20154;SDS011;10238;49.556;10.956;2022-10-16T01:50:02;8.32;;;3.58;;
20154;SDS011;10238;49.556;10.956;2022-10-16T01:52:53;3.30;;;2.83;;
20154;SDS011;10238;49.556;10.956;2022-10-16T01:55:46;3.63;;;2.65;;
20154;SDS011;10238;49.556;10.956;2022-10-16T01:58:37;4.15;;;2.90;;
20154;SDS011;10238;49.556;10.956;2022-10-16T02:01:30;5.18;;;2.80;;
20154;SDS011;10238;49.556;10.956;2022-10-16T02:04:26;9.02;;;2.85;;
20154;SDS011;10238;49.556;10.956;2022-10-16T02:07:20;4.05;;;2.95;;
20154;SDS011;10238;49.556;10.956;2022-10-16T02:10:08;5.15;;;2.80;;
20154;SDS011;10238;49.556;10.956;2022-10-16T02:12:58;2.75;;;2.53;;
20154;SDS011;10238;49.556;10.956;2022-10-16T02:15:52;2.95;;;2.47;;
20154;SDS011;10238;49.556;10.956;2022-10-16T02:18:39;4.53;;;2.33;;
20154;SDS011;10238;49.556;10.956;2022-10-16T02:21:31;6.28;;;2.58;;
20154;SDS011;10238;49.556;10.956;2022-10-16T02:24:28;4.13;;;2.30;;
20154;SDS011;10238;49.556;10.956;2022-10-16T02:27:26;5.78;;;2.58;;
20154;SDS011;10238;49.556;10.956;2022-10-16T02:30:23;2.85;;;2.53;;
20154;SDS011;10238;49.556;10.956;2022-10-16T02:33:20;3.97;;;2.67;;
20154;SDS011;10238;49.556;10.956;2022-10-16T02:36:11;4.38;;;2.60;;
20154;SDS011;10238;49.556;10.956;2022-10-16T02:39:02;4.70;;;2.35;;
20154;SDS011;10238;49.556;10.956;2022-10-16T02:41:51;3.20;;;2.63;;
20154;SDS011;10238;49.556;10.956;2022-10-16T02:44:38;3.83;;;2.08;;
20154;SDS011;10238;49.556;10.956;2022-10-16T02:47:27;4.85;;;2.90;;
20154;SDS011;10238;49.556;10.956;2022-10-16T02:50:14;4.68;;;2.50;;
20154;SDS011;10238;49.556;10.956;2022-10-16T02:53:02;4.45;;;3.20;;
20154;SDS011;10238;49.556;10.956;2022-10-16T02:55:51;2.70;;;2.50;;
20154;SDS011;10238;49.556;10.956;2022-10-16T02:58:39;3.20;;;2.55;;
20154;SDS011;10238;49.556;10.956;2022-10-16T03:01:27;5.25;;;2.95;;
20154;SDS011;10238;49.556;10.956;2022-10-16T03:04:15;3.47;;;2.60;;
20154;SDS011;10238;49.556;10.956;2022-10-16T03:07:02;2.75;;;2.33;;
20154;SDS011;10238;49.556;10.956;2022-10-16T03:09:50;5.10;;;2.88;;
20154;SDS011;10238;49.556;10.956;2022-10-16T03:12:39;3.78;;;2.72;;
20154;SDS011;10238;49.556;10.956;2022-10-16T03:15:27;3.35;;;2.67;;
20154;SDS011;10238;49.556;10.956;2022-10-16T03:18:14;5.05;;;2.55;;
20154;SDS011;10238;49.556;10.956;2022-10-16T03:21:02;3.47;;;2.92;;
20154;SDS011;10238;49.556;10.956;2022-10-16T03:23:51;3.80;;;2.75;;
20154;SDS011;10238;49.556;10.956;2022-10-16T03:26:38;2.90;;;2.67;;
20154;SDS011;10238;49.556;10.956;2022-10-16T03:29:27;7.93;;;2.75;;
20154;SDS011;10238;49.556;10.956;2022-10-16T03:32:15;2.88;;;2.67;;
20154;SDS011;10238;49.556;10.956;2022-10-16T03:35:05;3.05;;;2.60;;
20154;SDS011;10238;49.556;10.956;2022-10-16T03:37:54;3.53;;;2.67;;
20154;SDS011;10238;49.556;10.956;2022-10-16T03:40:41;5.50;;;3.15;;
20154;SDS011;10238;49.556;10.956;2022-10-16T03:43:29;4.25;;;2.60;;
20154;SDS011;10238;49.556;10.956;2022-10-16T03:46:18;5.22;;;2.63;;
20154;SDS011;10238;49.556;10.956;2022-10-16T03:49:06;4.50;;;3.00;;
20154;SDS011;10238;49.556;10.956;2022-10-16T03:51:54;4.45;;;2.53;;
20154;SDS011;10238;49.556;10.956;2022-10-16T03:54:42;2.50;;;2.35;;
20154;SDS011;10238;49.556;10.956;2022-10-16T03:57:30;4.18;;;2.47;;
20154;SDS011;10238;49.556;10.956;2022-10-16T04:00:17;2.75;;;2.50;;
20154;SDS011;10238;49.556;10.956;2022-10-16T04:03:06;4.15;;;2.67;;
20154;SDS011;10238;49.556;10.956;2022-10-16T04:05:54;2.70;;;2.50;;
20154;SDS011;10238;49.556;10.956;2022-10-16T04:08:42;3.90;;;2.80;;
20154;SDS011;10238;49.556;10.956;2022-10-16T04:11:30;2.92;;;2.63;;
20154;SDS011;10238;49.556;10.956;2022-10-16T04:14:18;3.90;;;2.70;;
20154;SDS011;10238;49.556;10.956;2022-10-16T04:17:06;2.90;;;2.60;;
20154;SDS011;10238;49.556;10.956;2022-10-16T04:19:54;2.80;;;2.58;;
20154;SDS011;10238;49.556;10.956;2022-10-16T04:22:42;5.22;;;2.72;;
20154;SDS011;10238;49.556;10.956;2022-10-16T04:25:29;3.65;;;2.63;;
20154;SDS011;10238;49.556;10.956;2022-10-16T04:28:17;4.00;;;2.80;;
20154;SDS011;10238;49.556;10.956;2022-10-16T04:31:06;3.40;;;3.10;;
20154;SDS011;10238;49.556;10.956;2022-10-16T04:33:54;5.18;;;2.60;;
20154;SDS011;10238;49.556;10.956;2022-10-16T04:36:43;3.17;;;2.70;;
20154;SDS011;10238;49.556;10.956;2022-10-16T04:39:33;2.83;;;2.63;;
20154;SDS011;10238;49.556;10.956;2022-10-16T04:42:21;5.43;;;2.70;;
20154;SDS011;10238;49.556;10.956;2022-10-16T04:45:09;2.92;;;2.65;;
20154;SDS011;10238;49.556;10.956;2022-10-16T04:48:01;3.70;;;2.30;;
20154;SDS011;10238;49.556;10.956;2022-10-16T04:50:49;3.58;;;2.35;;
20154;SDS011;10238;49.556;10.956;2022-10-16T04:53:40;3.35;;;2.83;;
20154;SDS011;10238;49.556;10.956;2022-10-16T04:56:28;3.05;;;2.22;;
20154;SDS011;10238;49.556;10.956;2022-10-16T04:59:16;3.53;;;2.53;;
20154;SDS011;10238;49.556;10.956;2022-10-16T05:02:04;6.43;;;3.00;;
20154;SDS011;10238;49.556;10.956;2022-10-16T05:04:52;5.43;;;2.72;;
20154;SDS011;10238;49.556;10.956;2022-10-16T05:07:40;3.15;;;2.40;;
20154;SDS011;10238;49.556;10.956;2022-10-16T05:10:29;2.70;;;2.45;;
20154;SDS011;10238;49.556;10.956;2022-10-16T05:13:17;4.60;;;2.33;;
20154;SDS011;10238;49.556;10.956;2022-10-16T05:16:05;4.50;;;2.45;;
20154;SDS011;10238;49.556;10.956;2022-10-16T05:18:53;3.45;;;2.83;;
20154;SDS011;10238;49.556;10.956;2022-10-16T05:22:01;6.30;;;2.70;;
20154;SDS011;10238;49.556;10.956;2022-10-16T05:24:49;3.60;;;2.70;;
20154;SDS011;10238;49.556;10.956;2022-10-16T05:27:39;3.72;;;3.53;;
20154;SDS011;10238;49.556;10.956;2022-10-16T05:30:27;2.90;;;2.70;;
20154;SDS011;10238;49.556;10.956;2022-10-16T05:33:16;6.90;;;3.05;;
20154;SDS011;10238;49.556;10.956;2022-10-16T05:36:06;3.25;;;2.97;;
20154;SDS011;10238;49.556;10.956;2022-10-16T05:38:56;4.18;;;2.95;;
20154;SDS011;10238;49.556;10.956;2022-10-16T05:41:44;5.63;;;2.70;;
20154;SDS011;10238;49.556;10.956;2022-10-16T05:44:33;4.95;;;3.15;;
20154;SDS011;10238;49.556;10.956;2022-10-16T05:47:21;2.90;;;2.70;;
20154;SDS011;10238;49.556;10.956;2022-10-16T05:50:09;3.53;;;3.22;;
20154;SDS011;10238;49.556;10.956;2022-10-16T05:52:57;3.63;;;2.85;;
20154;SDS011;10238;49.556;10.956;2022-10-16T05:55:51;4.63;;;2.85;;
20154;SDS011;10238;49.556;10.956;2022-10-16T05:58:39;2.72;;;2.53;;
20154;SDS011;10238;49.556;10.956;2022-10-16T06:01:29;3.83;;;2.78;;
20154;SDS011;10238;49.556;10.956;2022-10-16T06:04:16;3.47;;;2.92;;
20154;SDS011;10238;49.556;10.956;2022-10-16T06:07:04;5.03;;;2.75;;
20154;SDS011;10238;49.556;10.956;2022-10-16T06:09:52;3.72;;;2.20;;
20154;SDS011;10238;49.556;10.956;2022-10-16T06:12:40;2.78;;;2.35;;
20154;SDS011;10238;49.556;10.956;2022-10-16T06:15:29;5.90;;;2.90;;
20154;SDS011;10238;49.556;10.956;2022-10-16T06:18:18;3.47;;;3.13;;
20154;SDS011;10238;49.556;10.956;2022-10-16T06:21:09;3.38;;;3.08;;
20154;SDS011;10238;49.556;10.956;2022-10-16T06:23:59;4.00;;;2.83;;
20154;SDS011;10238;49.556;10.956;2022-10-16T06:26:49;3.20;;;2.58;;
20154;SDS011;10238;49.556;10.956;2022-10-16T06:29:37;4.55;;;3.00;;
20154;SDS011;10238;49.556;10.956;2022-10-16T06:32:25;3.95;;;3.28;;
20154;SDS011;10238;49.556;10.956;2022-10-16T06:35:17;6.50;;;3.08;;
20154;SDS011;10238;49.556;10.956;2022-10-16T06:38:04;3.33;;;3.08;;
20154;SDS011;10238;49.556;10.956;2022-10-16T06:40:53;3.17;;;2.85;;
20154;SDS011;10238;49.556;10.956;2022-10-16T06:43:41;4.63;;;2.70;;
20154;SDS011;10238;49.556;10.956;2022-10-16T06:46:30;3.83;;;2.60;;
20154;SDS011;10238;49.556;10.956;2022-10-16T06:49:18;3.00;;;2.70;;
20154;SDS011;10238;49.556;10.956;2022-10-16T06:52:09;4.97;;;2.80;;
20154;SDS011;10238;49.556;10.956;2022-10-16T06:54:57;3.53;;;2.42;;
20154;SDS011;10238;49.556;10.956;2022-10-16T06:57:46;2.58;;;2.38;;
20154;SDS011;10238;49.556;10.956;2022-10-16T07:00:34;5.63;;;2.58;;
20154;SDS011;10238;49.556;10.956;2022-10-16T07:03:23;2.85;;;2.63;;
20154;SDS011;10238;49.556;10.956;2022-10-16T07:06:12;3.13;;;2.78;;
20154;SDS011;10238;49.556;10.956;2022-10-16T07:09:04;3.42;;;2.53;;
20154;SDS011;10238;49.556;10.956;2022-10-16T07:11:53;2.63;;;2.43;;
20154;SDS011;10238;49.556;10.956;2022-10-16T07:14:41;3.63;;;2.95;;
20154;SDS011;10238;49.556;10.956;2022-10-16T07:17:29;3.20;;;2.90;;
20154;SDS011;10238;49.556;10.956;2022-10-16T07:20:17;3.58;;;2.88;;
20154;SDS011;10238;49.556;10.956;2022-10-16T07:23:04;6.00;;;3.60;;
20154;SDS011;10238;49.556;10.956;2022-10-16T07:25:54;5.07;;;3.45;;
20154;SDS011;10238;49.556;10.956;2022-10-16T07:28:42;3.85;;;2.72;;
20154;SDS011;10238;49.556;10.956;2022-10-16T07:31:33;3.35;;;3.13;;
20154;SDS011;10238;49.556;10.956;2022-10-16T07:34:21;3.90;;;2.88;;
20154;SDS011;10238;49.556;10.956;2022-10-16T07:37:09;3.20;;;2.60;;
20154;SDS011;10238;49.556;10.956;2022-10-16T07:39:57;5.38;;;3.15;;
20154;SDS011;10238;49.556;10.956;2022-10-16T07:42:46;4.00;;;2.90;;
20154;SDS011;10238;49.556;10.956;2022-10-16T07:45:34;5.15;;;2.80;;
20154;SDS011;10238;49.556;10.956;2022-10-16T07:48:23;3.85;;;2.97;;
20154;SDS011;10238;49.556;10.956;2022-10-16T07:51:14;6.68;;;3.47;;
20154;SDS011;10238;49.556;10.956;2022-10-16T07:54:03;5.57;;;2.80;;
20154;SDS011;10238;49.556;10.956;2022-10-16T07:56:51;3.17;;;2.58;;
20154;SDS011;10238;49.556;10.956;2022-10-16T07:59:41;5.53;;;2.65;;
20154;SDS011;10238;49.556;10.956;2022-10-16T08:02:29;4.78;;;2.60;;
20154;SDS011;10238;49.556;10.956;2022-10-16T08:05:18;3.78;;;2.60;;
20154;SDS011;10238;49.556;10.956;2022-10-16T08:08:06;3.40;;;3.10;;
20154;SDS011;10238;49.556;10.956;2022-10-16T08:10:58;3.30;;;2.40;;
20154;SDS011;10238;49.556;10.956;2022-10-16T08:13:48;7.00;;;2.95;;
20154;SDS011;10238;49.556;10.956;2022-10-16T08:16:37;3.53;;;2.90;;
20154;SDS011;10238;49.556;10.956;2022-10-16T08:19:26;3.33;;;2.60;;
20154;SDS011;10238;49.556;10.956;2022-10-16T08:22:13;4.85;;;2.92;;
20154;SDS011;10238;49.556;10.956;2022-10-16T08:25:02;7.75;;;3.08;;
20154;SDS011;10238;49.556;10.956;2022-10-16T08:27:50;5.10;;;3.05;;
20154;SDS011;10238;49.556;10.956;2022-10-16T08:30:38;3.33;;;3.03;;
20154;SDS011;10238;49.556;10.956;2022-10-16T08:33:27;3.97;;;3.58;;
20154;SDS011;10238;49.556;10.956;2022-10-16T08:36:15;4.50;;;3.83;;
20154;SDS011;10238;49.556;10.956;2022-10-16T08:39:03;4.43;;;4.13;;
20154;SDS011;10238;49.556;10.956;2022-10-16T08:45:19;5.68;;;2.88;;
20154;SDS011;10238;49.556;10.956;2022-10-16T08:48:17;8.40;;;2.70;;
20154;SDS011;10238;49.556;10.956;2022-10-16T08:51:15;5.40;;;2.28;;
20154;SDS011;10238;49.556;10.956;2022-10-16T08:54:11;5.55;;;3.42;;
20154;SDS011;10238;49.556;10.956;2022-10-16T08:57:09;3.50;;;3.03;;
20154;SDS011;10238;49.556;10.956;2022-10-16T08:59:59;4.32;;;4.13;;
20154;SDS011;10238;49.556;10.956;2022-10-16T09:02:59;7.60;;;7.00;;
20154;SDS011;10238;49.556;10.956;2022-10-16T09:06:01;6.30;;;5.70;;
20154;SDS011;10238;49.556;10.956;2022-10-16T09:09:15;5.22;;;3.92;;
20154;SDS011;10238;49.556;10.956;2022-10-16T09:12:12;9.52;;;3.72;;
20154;SDS011;10238;49.556;10.956;2022-10-16T09:18:00;4.53;;;4.13;;
20154;SDS011;10238;49.556;10.956;2022-10-16T09:20:56;5.85;;;4.10;;
20154;SDS011;10238;49.556;10.956;2022-10-16T09:23:52;5.78;;;4.43;;
20154;SDS011;10238;49.556;10.956;2022-10-16T09:29:31;3.63;;;3.33;;
20154;SDS011;10238;49.556;10.956;2022-10-16T09:32:20;3.35;;;3.03;;
20154;SDS011;10238;49.556;10.956;2022-10-16T09:35:11;3.75;;;3.30;;
20154;SDS011;10238;49.556;10.956;2022-10-16T09:38:03;6.70;;;2.80;;
20154;SDS011;10238;49.556;10.956;2022-10-16T09:40:52;3.75;;;2.85;;
20154;SDS011;10238;49.556;10.956;2022-10-16T09:43:48;4.22;;;2.78;;
20154;SDS011;10238;49.556;10.956;2022-10-16T09:46:41;4.25;;;3.13;;
20154;SDS011;10238;49.556;10.956;2022-10-16T09:49:29;3.42;;;3.13;;
20154;SDS011;10238;49.556;10.956;2022-10-16T09:52:18;8.27;;;4.55;;
20154;SDS011;10238;49.556;10.956;2022-10-16T09:55:12;5.47;;;3.67;;
20154;SDS011;10238;49.556;10.956;2022-10-16T09:58:11;4.45;;;3.40;;
20154;SDS011;10238;49.556;10.956;2022-10-16T10:00:59;3.65;;;3.15;;
20154;SDS011;10238;49.556;10.956;2022-10-16T10:03:48;5.57;;;2.90;;
20154;SDS011;10238;49.556;10.956;2022-10-16T10:06:41;6.72;;;3.00;;
20154;SDS011;10238;49.556;10.956;2022-10-16T10:09:32;4.90;;;2.63;;
20154;SDS011;10238;49.556;10.956;2022-10-16T10:12:25;7.13;;;3.95;;
20154;SDS011;10238;49.556;10.956;2022-10-16T10:15:16;7.57;;;2.75;;
20154;SDS011;10238;49.556;10.956;2022-10-16T10:18:15;4.30;;;3.25;;
20154;SDS011;10238;49.556;10.956;2022-10-16T10:21:05;4.93;;;2.90;;
20154;SDS011;10238;49.556;10.956;2022-10-16T10:24:01;5.07;;;3.03;;
20154;SDS011;10238;49.556;10.956;2022-10-16T10:26:51;5.75;;;3.88;;
20154;SDS011;10238;49.556;10.956;2022-10-16T10:29:49;4.93;;;3.33;;
20154;SDS011;10238;49.556;10.956;2022-10-16T10:32:48;5.32;;;4.30;;
20154;SDS011;10238;49.556;10.956;2022-10-16T10:35:55;5.13;;;4.55;;
20154;SDS011;10238;49.556;10.956;2022-10-16T10:38:52;5.78;;;5.28;;
20154;SDS011;10238;49.556;10.956;2022-10-16T10:41:51;6.45;;;5.78;;
20154;SDS011;10238;49.556;10.956;2022-10-16T10:44:55;6.50;;;5.93;;
20154;SDS011;10238;49.556;10.956;2022-10-16T10:48:03;6.97;;;6.28;;
20154;SDS011;10238;49.556;10.956;2022-10-16T10:51:01;5.22;;;4.93;;
20154;SDS011;10238;49.556;10.956;2022-10-16T10:53:57;5.82;;;5.32;;
20154;SDS011;10238;49.556;10.956;2022-10-16T10:57:00;3.50;;;3.00;;
20154;SDS011;10238;49.556;10.956;2022-10-16T11:03:11;3.80;;;3.47;;
20154;SDS011;10238;49.556;10.956;2022-10-16T11:06:11;4.20;;;2.97;;
20154;SDS011;10238;49.556;10.956;2022-10-16T11:09:08;3.70;;;2.97;;
20154;SDS011;10238;49.556;10.956;2022-10-16T11:12:01;5.75;;;2.45;;
20154;SDS011;10238;49.556;10.956;2022-10-16T11:14:59;3.92;;;2.83;;
20154;SDS011;10238;49.556;10.956;2022-10-16T11:17:55;4.55;;;2.58;;
20154;SDS011;10238;49.556;10.956;2022-10-16T11:20:50;2.97;;;2.70;;
20154;SDS011;10238;49.556;10.956;2022-10-16T11:23:42;7.00;;;3.25;;
20154;SDS011;10238;49.556;10.956;2022-10-16T11:26:36;5.78;;;3.97;;
20154;SDS011;10238;49.556;10.956;2022-10-16T11:29:30;5.35;;;4.00;;
20154;SDS011;10238;49.556;10.956;2022-10-16T11:32:22;6.88;;;5.47;;
20154;SDS011;10238;49.556;10.956;2022-10-16T11:35:15;8.43;;;7.72;;
20154;SDS011;10238;49.556;10.956;2022-10-16T11:38:13;7.65;;;7.15;;
20154;SDS011;10238;49.556;10.956;2022-10-16T11:41:10;6.10;;;5.80;;
20154;SDS011;10238;49.556;10.956;2022-10-16T11:44:15;7.47;;;6.95;;
20154;SDS011;10238;49.556;10.956;2022-10-16T11:47:13;7.90;;;7.40;;
20154;SDS011;10238;49.556;10.956;2022-10-16T11:50:32;8.40;;;7.80;;
20154;SDS011;10238;49.556;10.956;2022-10-16T11:53:31;6.25;;;5.70;;
20154;SDS011;10238;49.556;10.956;2022-10-16T11:56:32;9.35;;;8.40;;
20154;SDS011;10238;49.556;10.956;2022-10-16T11:59:28;5.05;;;4.75;;
20154;SDS011;10238;49.556;10.956;2022-10-16T12:02:26;7.45;;;6.30;;
20154;SDS011;10238;49.556;10.956;2022-10-16T12:05:40;9.80;;;5.00;;
20154;SDS011;10238;49.556;10.956;2022-10-16T12:08:43;5.50;;;3.05;;
20154;SDS011;10238;49.556;10.956;2022-10-16T12:11:36;4.40;;;3.80;;
20154;SDS011;10238;49.556;10.956;2022-10-16T12:14:37;4.68;;;4.38;;
20154;SDS011;10238;49.556;10.956;2022-10-16T12:17:49;4.10;;;3.80;;
20154;SDS011;10238;49.556;10.956;2022-10-16T12:20:37;4.65;;;3.63;;
20154;SDS011;10238;49.556;10.956;2022-10-16T12:23:31;4.28;;;3.97;;
20154;SDS011;10238;49.556;10.956;2022-10-16T12:26:27;6.03;;;5.63;;
20154;SDS011;10238;49.556;10.956;2022-10-16T12:29:23;6.00;;;3.88;;
20154;SDS011;10238;49.556;10.956;2022-10-16T12:32:23;5.35;;;4.38;;
20154;SDS011;10238;49.556;10.956;2022-10-16T12:35:34;3.83;;;3.47;;
20154;SDS011;10238;49.556;10.956;2022-10-16T12:38:35;3.85;;;2.72;;
20154;SDS011;10238;49.556;10.956;2022-10-16T12:41:48;2.40;;;2.13;;
20154;SDS011;10238;49.556;10.956;2022-10-16T12:44:47;3.72;;;2.08;;
20154;SDS011;10238;49.556;10.956;2022-10-16T12:47:37;4.32;;;2.20;;
20154;SDS011;10238;49.556;10.956;2022-10-16T12:50:41;4.20;;;2.50;;
20154;SDS011;10238;49.556;10.956;2022-10-16T12:53:31;2.45;;;2.25;;
20154;SDS011;10238;49.556;10.956;2022-10-16T12:56:27;3.28;;;2.38;;
20154;SDS011;10238;49.556;10.956;2022-10-16T12:59:37;5.38;;;2.50;;
20154;SDS011;10238;49.556;10.956;2022-10-16T13:05:45;2.80;;;1.92;;
20154;SDS011;10238;49.556;10.956;2022-10-16T13:08:48;2.38;;;1.70;;
20154;SDS011;10238;49.556;10.956;2022-10-16T13:12:03;3.97;;;1.90;;
20154;SDS011;10238;49.556;10.956;2022-10-16T13:18:22;2.85;;;2.20;;
20154;SDS011;10238;49.556;10.956;2022-10-16T13:21:18;5.38;;;1.83;;
20154;SDS011;10238;49.556;10.956;2022-10-16T13:24:20;3.78;;;2.65;;
20154;SDS011;10238;49.556;10.956;2022-10-16T13:27:19;2.05;;;1.77;;
20154;SDS011;10238;49.556;10.956;2022-10-16T13:30:16;2.38;;;2.00;;
20154;SDS011;10238;49.556;10.956;2022-10-16T13:33:17;3.22;;;1.98;;
20154;SDS011;10238;49.556;10.956;2022-10-16T13:36:17;2.58;;;1.95;;
20154;SDS011;10238;49.556;10.956;2022-10-16T13:39:10;3.70;;;2.20;;
20154;SDS011;10238;49.556;10.956;2022-10-16T13:42:03;3.28;;;1.60;;
20154;SDS011;10238;49.556;10.956;2022-10-16T13:44:54;3.22;;;1.80;;
20154;SDS011;10238;49.556;10.956;2022-10-16T13:47:42;2.80;;;2.08;;
20154;SDS011;10238;49.556;10.956;2022-10-16T13:50:32;3.65;;;2.20;;
20154;SDS011;10238;49.556;10.956;2022-10-16T13:53:20;1.85;;;1.75;;
20154;SDS011;10238;49.556;10.956;2022-10-16T13:56:10;4.03;;;1.95;;
20154;SDS011;10238;49.556;10.956;2022-10-16T13:59:00;2.67;;;1.70;;
20154;SDS011;10238;49.556;10.956;2022-10-16T14:01:48;2.65;;;1.70;;
20154;SDS011;10238;49.556;10.956;2022-10-16T14:04:40;2.97;;;1.83;;
20154;SDS011;10238;49.556;10.956;2022-10-16T14:07:30;2.95;;;1.98;;
20154;SDS011;10238;49.556;10.956;2022-10-16T14:10:22;2.38;;;1.70;;
20154;SDS011;10238;49.556;10.956;2022-10-16T14:13:12;1.60;;;1.50;;
20154;SDS011;10238;49.556;10.956;2022-10-16T14:16:06;3.00;;;2.10;;
20154;SDS011;10238;49.556;10.956;2022-10-16T14:18:57;2.30;;;1.75;;
20154;SDS011;10238;49.556;10.956;2022-10-16T14:21:46;2.20;;;1.80;;
20154;SDS011;10238;49.556;10.956;2022-10-16T14:24:35;3.40;;;2.13;;
20154;SDS011;10238;49.556;10.956;2022-10-16T14:27:26;4.97;;;1.65;;
20154;SDS011;10238;49.556;10.956;2022-10-16T14:30:17;4.25;;;1.85;;
20154;SDS011;10238;49.556;10.956;2022-10-16T14:33:19;1.60;;;1.50;;
20154;SDS011;10238;49.556;10.956;2022-10-16T14:36:11;3.35;;;2.25;;
20154;SDS011;10238;49.556;10.956;2022-10-16T14:41:52;2.03;;;1.67;;
20154;SDS011;10238;49.556;10.956;2022-10-16T14:44:44;2.92;;;1.83;;
20154;SDS011;10238;49.556;10.956;2022-10-16T14:47:34;2.80;;;1.92;;
20154;SDS011;10238;49.556;10.956;2022-10-16T14:50:34;3.55;;;2.03;;
20154;SDS011;10238;49.556;10.956;2022-10-16T14:53:22;4.32;;;2.10;;
20154;SDS011;10238;49.556;10.956;2022-10-16T14:56:14;2.80;;;1.80;;
20154;SDS011;10238;49.556;10.956;2022-10-16T14:59:05;2.28;;;2.00;;
20154;SDS011;10238;49.556;10.956;2022-10-16T15:01:58;5.80;;;1.85;;
20154;SDS011;10238;49.556;10.956;2022-10-16T15:05:01;1.80;;;1.67;;
20154;SDS011;10238;49.556;10.956;2022-10-16T15:07:59;2.25;;;1.75;;
20154;SDS011;10238;49.556;10.956;2022-10-16T15:10:47;2.58;;;1.75;;
20154;SDS011;10238;49.556;10.956;2022-10-16T15:13:40;2.92;;;1.75;;
20154;SDS011;10238;49.556;10.956;2022-10-16T15:16:29;3.10;;;1.63;;
20154;SDS011;10238;49.556;10.956;2022-10-16T15:19:17;2.33;;;2.00;;
20154;SDS011;10238;49.556;10.956;2022-10-16T15:22:06;3.38;;;1.90;;
20154;SDS011;10238;49.556;10.956;2022-10-16T15:24:56;1.92;;;1.73;;
20154;SDS011;10238;49.556;10.956;2022-10-16T15:27:44;1.80;;;1.70;;
20154;SDS011;10238;49.556;10.956;2022-10-16T15:30:31;8.77;;;2.00;;
20154;SDS011;10238;49.556;10.956;2022-10-16T15:33:22;1.67;;;1.58;;
20154;SDS011;10238;49.556;10.956;2022-10-16T15:36:14;2.92;;;2.20;;
20154;SDS011;10238;49.556;10.956;2022-10-16T15:39:02;3.38;;;2.28;;
20154;SDS011;10238;49.556;10.956;2022-10-16T15:41:50;3.92;;;3.20;;
20154;SDS011;10238;49.556;10.956;2022-10-16T15:44:38;4.15;;;3.75;;
20154;SDS011;10238;49.556;10.956;2022-10-16T15:47:26;4.47;;;4.18;;
20154;SDS011;10238;49.556;10.956;2022-10-16T15:50:16;5.10;;;4.47;;
20154;SDS011;10238;49.556;10.956;2022-10-16T15:53:04;3.45;;;3.20;;
20154;SDS011;10238;49.556;10.956;2022-10-16T15:55:52;4.93;;;2.60;;
20154;SDS011;10238;49.556;10.956;2022-10-16T15:58:40;2.67;;;1.98;;
20154;SDS011;10238;49.556;10.956;2022-10-16T16:01:31;1.88;;;1.63;;
20154;SDS011;10238;49.556;10.956;2022-10-16T16:04:20;2.17;;;2.00;;
20154;SDS011;10238;49.556;10.956;2022-10-16T16:07:30;5.40;;;2.60;;
20154;SDS011;10238;49.556;10.956;2022-10-16T16:10:20;2.40;;;2.25;;
20154;SDS011;10238;49.556;10.956;2022-10-16T16:13:08;3.10;;;2.53;;
20154;SDS011;10238;49.556;10.956;2022-10-16T16:16:01;3.00;;;2.78;;
20154;SDS011;10238;49.556;10.956;2022-10-16T16:18:53;3.83;;;3.47;;
20154;SDS011;10238;49.556;10.956;2022-10-16T16:21:41;4.28;;;2.70;;
20154;SDS011;10238;49.556;10.956;2022-10-16T16:24:30;2.80;;;2.60;;
20154;SDS011;10238;49.556;10.956;2022-10-16T16:27:18;3.85;;;2.85;;
20154;SDS011;10238;49.556;10.956;2022-10-16T16:30:07;2.88;;;2.67;;
20154;SDS011;10238;49.556;10.956;2022-10-16T16:33:04;3.97;;;2.95;;
20154;SDS011;10238;49.556;10.956;2022-10-16T16:35:55;2.80;;;2.60;;
20154;SDS011;10238;49.556;10.956;2022-10-16T16:38:45;5.60;;;2.30;;
20154;SDS011;10238;49.556;10.956;2022-10-16T16:41:34;3.22;;;2.40;;
20154;SDS011;10238;49.556;10.956;2022-10-16T16:44:22;6.93;;;2.85;;
20154;SDS011;10238;49.556;10.956;2022-10-16T16:47:11;3.17;;;2.70;;
20154;SDS011;10238;49.556;10.956;2022-10-16T16:49:59;2.95;;;2.75;;
20154;SDS011;10238;49.556;10.956;2022-10-16T16:52:50;3.70;;;3.40;;
20154;SDS011;10238;49.556;10.956;2022-10-16T16:55:38;7.28;;;4.45;;
20154;SDS011;10238;49.556;10.956;2022-10-16T16:58:27;4.15;;;3.85;;
20154;SDS011;10238;49.556;10.956;2022-10-16T17:01:15;3.92;;;3.40;;
20154;SDS011;10238;49.556;10.956;2022-10-16T17:04:05;4.20;;;3.22;;
20154;SDS011;10238;49.556;10.956;2022-10-16T17:06:54;3.70;;;3.40;;
20154;SDS011;10238;49.556;10.956;2022-10-16T17:09:42;5.68;;;3.95;;
20154;SDS011;10238;49.556;10.956;2022-10-16T17:12:30;4.70;;;2.95;;
20154;SDS011;10238;49.556;10.956;2022-10-16T17:15:35;3.28;;;3.08;;
20154;SDS011;10238;49.556;10.956;2022-10-16T17:18:43;3.58;;;3.25;;
20154;SDS011;10238;49.556;10.956;2022-10-16T17:21:31;5.28;;;3.70;;
20154;SDS011;10238;49.556;10.956;2022-10-16T17:24:19;4.20;;;3.90;;